sensor_id;sensor_type;location;lat;lon;timestamp;P1;durP1;ratioP1;P2;durP2;ratioP2
84138;SDS011;74250;51.528;6.748;2023-11-18T00:00:57;40.20;;;18.13;;
84138;SDS011;74250;51.528;6.748;2023-11-18T00:03:32;61.40;;;22.70;;
84138;SDS011;74250;51.528;6.748;2023-11-18T00:05:58;50.03;;;20.58;;
84138;SDS011;74250;51.528;6.748;2023-11-18T00:08:24;43.35;;;18.50;;
84138;SDS011;74250;51.528;6.748;2023-11-18T00:10:50;52.50;;;19.38;;
84138;SDS011;74250;51.528;6.748;2023-11-18T00:13:18;53.83;;;19.20;;
84138;SDS011;74250;51.528;6.748;2023-11-18T00:15:44;51.28;;;19.27;;
84138;SDS011;74250;51.528;6.748;2023-11-18T00:18:28;43.28;;;18.42;;
84138;SDS011;74250;51.528;6.748;2023-11-18T00:20:53;45.67;;;18.33;;
84138;SDS011;74250;51.528;6.748;2023-11-18T00:23:19;41.55;;;17.83;;
84138;SDS011;74250;51.528;6.748;2023-11-18T00:25:45;36.97;;;17.10;;
84138;SDS011;74250;51.528;6.748;2023-11-18T00:28:28;36.65;;;16.00;;
84138;SDS011;74250;51.528;6.748;2023-11-18T00:30:53;39.53;;;15.82;;
84138;SDS011;74250;51.528;6.748;2023-11-18T00:33:19;42.20;;;17.13;;
84138;SDS011;74250;51.528;6.748;2023-11-18T00:35:46;39.53;;;17.15;;
84138;SDS011;74250;51.528;6.748;2023-11-18T00:38:12;40.75;;;16.60;;
84138;SDS011;74250;51.528;6.748;2023-11-18T00:40:37;52.53;;;21.38;;
84138;SDS011;74250;51.528;6.748;2023-11-18T00:43:02;46.05;;;18.52;;
84138;SDS011;74250;51.528;6.748;2023-11-18T00:45:28;49.95;;;19.25;;
84138;SDS011;74250;51.528;6.748;2023-11-18T00:47:53;50.13;;;19.92;;
84138;SDS011;74250;51.528;6.748;2023-11-18T00:50:19;46.17;;;18.27;;
84138;SDS011;74250;51.528;6.748;2023-11-18T00:52:45;64.60;;;20.48;;
84138;SDS011;74250;51.528;6.748;2023-11-18T00:55:14;48.63;;;19.02;;
84138;SDS011;74250;51.528;6.748;2023-11-18T00:57:42;37.17;;;16.35;;
84138;SDS011;74250;51.528;6.748;2023-11-18T01:00:10;40.33;;;19.23;;
84138;SDS011;74250;51.528;6.748;2023-11-18T01:02:44;39.95;;;16.50;;
84138;SDS011;74250;51.528;6.748;2023-11-18T01:05:12;43.67;;;18.67;;
84138;SDS011;74250;51.528;6.748;2023-11-18T01:07:38;36.60;;;15.65;;
84138;SDS011;74250;51.528;6.748;2023-11-18T01:10:05;58.78;;;19.17;;
84138;SDS011;74250;51.528;6.748;2023-11-18T01:12:32;43.33;;;17.83;;
84138;SDS011;74250;51.528;6.748;2023-11-18T01:14:58;48.47;;;19.27;;
84138;SDS011;74250;51.528;6.748;2023-11-18T01:17:23;53.72;;;19.02;;
84138;SDS011;74250;51.528;6.748;2023-11-18T01:19:49;38.75;;;15.68;;
84138;SDS011;74250;51.528;6.748;2023-11-18T01:22:16;48.50;;;17.20;;
84138;SDS011;74250;51.528;6.748;2023-11-18T01:24:43;50.45;;;17.15;;
84138;SDS011;74250;51.528;6.748;2023-11-18T01:27:09;44.15;;;17.20;;
84138;SDS011;74250;51.528;6.748;2023-11-18T01:29:36;36.17;;;15.25;;
84138;SDS011;74250;51.528;6.748;2023-11-18T01:32:01;36.42;;;13.57;;
84138;SDS011;74250;51.528;6.748;2023-11-18T01:34:33;36.85;;;14.98;;
84138;SDS011;74250;51.528;6.748;2023-11-18T01:37:00;34.17;;;14.35;;
84138;SDS011;74250;51.528;6.748;2023-11-18T01:39:25;42.83;;;17.30;;
84138;SDS011;74250;51.528;6.748;2023-11-18T01:41:52;47.00;;;16.42;;
84138;SDS011;74250;51.528;6.748;2023-11-18T01:44:18;44.03;;;16.17;;
84138;SDS011;74250;51.528;6.748;2023-11-18T01:46:49;38.13;;;15.20;;
84138;SDS011;74250;51.528;6.748;2023-11-18T01:49:14;43.90;;;16.38;;
84138;SDS011;74250;51.528;6.748;2023-11-18T01:51:42;55.40;;;18.27;;
84138;SDS011;74250;51.528;6.748;2023-11-18T01:54:11;52.55;;;18.88;;
84138;SDS011;74250;51.528;6.748;2023-11-18T01:56:41;46.60;;;16.30;;
84138;SDS011;74250;51.528;6.748;2023-11-18T01:59:08;53.03;;;19.10;;
84138;SDS011;74250;51.528;6.748;2023-11-18T02:01:35;48.47;;;16.38;;
84138;SDS011;74250;51.528;6.748;2023-11-18T02:04:01;46.80;;;17.52;;
84138;SDS011;74250;51.528;6.748;2023-11-18T02:06:28;51.70;;;16.88;;
84138;SDS011;74250;51.528;6.748;2023-11-18T02:08:53;52.05;;;17.83;;
84138;SDS011;74250;51.528;6.748;2023-11-18T02:11:42;49.42;;;17.52;;
84138;SDS011;74250;51.528;6.748;2023-11-18T02:14:07;38.05;;;15.27;;
84138;SDS011;74250;51.528;6.748;2023-11-18T02:16:36;35.33;;;14.15;;
84138;SDS011;74250;51.528;6.748;2023-11-18T02:21:28;44.58;;;16.23;;
84138;SDS011;74250;51.528;6.748;2023-11-18T02:26:20;44.47;;;15.13;;
84138;SDS011;74250;51.528;6.748;2023-11-18T02:28:49;38.17;;;15.88;;
84138;SDS011;74250;51.528;6.748;2023-11-18T02:31:20;52.40;;;17.33;;
84138;SDS011;74250;51.528;6.748;2023-11-18T02:34:04;36.28;;;15.75;;
84138;SDS011;74250;51.528;6.748;2023-11-18T02:36:35;38.28;;;17.17;;
84138;SDS011;74250;51.528;6.748;2023-11-18T02:39:04;51.92;;;19.60;;
84138;SDS011;74250;51.528;6.748;2023-11-18T02:41:35;48.72;;;18.55;;
84138;SDS011;74250;51.528;6.748;2023-11-18T02:44:02;50.75;;;17.25;;
84138;SDS011;74250;51.528;6.748;2023-11-18T02:46:33;40.63;;;16.90;;
84138;SDS011;74250;51.528;6.748;2023-11-18T02:48:59;44.33;;;17.35;;
84138;SDS011;74250;51.528;6.748;2023-11-18T02:51:25;44.72;;;18.52;;
84138;SDS011;74250;51.528;6.748;2023-11-18T02:53:51;42.97;;;18.05;;
84138;SDS011;74250;51.528;6.748;2023-11-18T02:56:16;50.05;;;18.88;;
84138;SDS011;74250;51.528;6.748;2023-11-18T02:58:43;43.47;;;18.60;;
84138;SDS011;74250;51.528;6.748;2023-11-18T03:01:09;46.78;;;19.20;;
84138;SDS011;74250;51.528;6.748;2023-11-18T03:03:36;38.67;;;17.02;;
84138;SDS011;74250;51.528;6.748;2023-11-18T03:06:02;43.30;;;17.35;;
84138;SDS011;74250;51.528;6.748;2023-11-18T03:08:27;42.75;;;16.60;;
84138;SDS011;74250;51.528;6.748;2023-11-18T03:10:55;50.90;;;19.08;;
84138;SDS011;74250;51.528;6.748;2023-11-18T03:13:21;42.92;;;17.30;;
84138;SDS011;74250;51.528;6.748;2023-11-18T03:15:48;36.85;;;18.20;;
84138;SDS011;74250;51.528;6.748;2023-11-18T03:18:14;38.78;;;16.42;;
84138;SDS011;74250;51.528;6.748;2023-11-18T03:20:40;41.83;;;17.35;;
84138;SDS011;74250;51.528;6.748;2023-11-18T03:23:06;39.95;;;16.25;;
84138;SDS011;74250;51.528;6.748;2023-11-18T03:25:34;34.60;;;15.85;;
84138;SDS011;74250;51.528;6.748;2023-11-18T03:27:59;35.85;;;15.63;;
84138;SDS011;74250;51.528;6.748;2023-11-18T03:30:25;38.70;;;17.27;;
84138;SDS011;74250;51.528;6.748;2023-11-18T03:33:02;35.22;;;15.65;;
84138;SDS011;74250;51.528;6.748;2023-11-18T03:35:28;37.90;;;17.05;;
84138;SDS011;74250;51.528;6.748;2023-11-18T03:37:54;32.53;;;15.35;;
84138;SDS011;74250;51.528;6.748;2023-11-18T03:40:20;35.85;;;16.48;;
84138;SDS011;74250;51.528;6.748;2023-11-18T03:42:45;34.92;;;15.50;;
84138;SDS011;74250;51.528;6.748;2023-11-18T03:45:13;39.35;;;17.15;;
84138;SDS011;74250;51.528;6.748;2023-11-18T03:47:43;37.35;;;16.30;;
84138;SDS011;74250;51.528;6.748;2023-11-18T03:50:08;33.25;;;15.57;;
84138;SDS011;74250;51.528;6.748;2023-11-18T03:52:35;32.78;;;15.13;;
84138;SDS011;74250;51.528;6.748;2023-11-18T03:55:02;30.92;;;14.88;;
84138;SDS011;74250;51.528;6.748;2023-11-18T03:57:29;36.83;;;15.57;;
84138;SDS011;74250;51.528;6.748;2023-11-18T03:59:54;40.55;;;15.43;;
84138;SDS011;74250;51.528;6.748;2023-11-18T04:02:23;37.17;;;15.88;;
84138;SDS011;74250;51.528;6.748;2023-11-18T04:04:49;34.05;;;15.10;;
84138;SDS011;74250;51.528;6.748;2023-11-18T04:07:24;34.10;;;16.90;;
84138;SDS011;74250;51.528;6.748;2023-11-18T04:09:49;37.30;;;17.08;;
84138;SDS011;74250;51.528;6.748;2023-11-18T04:12:17;36.60;;;16.40;;
84138;SDS011;74250;51.528;6.748;2023-11-18T04:14:42;34.55;;;15.05;;
84138;SDS011;74250;51.528;6.748;2023-11-18T04:17:08;36.22;;;15.85;;
84138;SDS011;74250;51.528;6.748;2023-11-18T04:19:34;37.28;;;16.25;;
84138;SDS011;74250;51.528;6.748;2023-11-18T04:22:00;34.55;;;15.38;;
84138;SDS011;74250;51.528;6.748;2023-11-18T04:24:28;33.90;;;14.70;;
84138;SDS011;74250;51.528;6.748;2023-11-18T04:26:53;33.05;;;15.77;;
84138;SDS011;74250;51.528;6.748;2023-11-18T04:29:20;34.90;;;15.55;;
84138;SDS011;74250;51.528;6.748;2023-11-18T04:31:46;39.72;;;16.45;;
84138;SDS011;74250;51.528;6.748;2023-11-18T04:34:11;29.15;;;12.55;;
84138;SDS011;74250;51.528;6.748;2023-11-18T04:36:40;35.17;;;15.02;;
84138;SDS011;74250;51.528;6.748;2023-11-18T04:39:09;37.15;;;15.13;;
84138;SDS011;74250;51.528;6.748;2023-11-18T04:41:37;38.15;;;15.20;;
84138;SDS011;74250;51.528;6.748;2023-11-18T04:44:02;32.45;;;14.75;;
84138;SDS011;74250;51.528;6.748;2023-11-18T04:46:28;39.00;;;15.68;;
84138;SDS011;74250;51.528;6.748;2023-11-18T04:48:53;39.15;;;17.30;;
84138;SDS011;74250;51.528;6.748;2023-11-18T04:51:19;37.97;;;16.95;;
84138;SDS011;74250;51.528;6.748;2023-11-18T04:53:47;47.50;;;16.95;;
84138;SDS011;74250;51.528;6.748;2023-11-18T04:56:13;45.45;;;17.67;;
84138;SDS011;74250;51.528;6.748;2023-11-18T04:58:45;34.95;;;15.43;;
84138;SDS011;74250;51.528;6.748;2023-11-18T05:01:13;33.88;;;14.27;;
84138;SDS011;74250;51.528;6.748;2023-11-18T05:03:39;39.35;;;16.33;;
84138;SDS011;74250;51.528;6.748;2023-11-18T05:06:05;29.10;;;13.85;;
84138;SDS011;74250;51.528;6.748;2023-11-18T05:08:30;34.55;;;16.70;;
84138;SDS011;74250;51.528;6.748;2023-11-18T05:11:01;36.58;;;16.25;;
84138;SDS011;74250;51.528;6.748;2023-11-18T05:13:35;31.38;;;14.98;;
84138;SDS011;74250;51.528;6.748;2023-11-18T05:16:00;34.25;;;15.20;;
84138;SDS011;74250;51.528;6.748;2023-11-18T05:18:28;34.58;;;14.50;;
84138;SDS011;74250;51.528;6.748;2023-11-18T05:20:58;32.83;;;15.85;;
84138;SDS011;74250;51.528;6.748;2023-11-18T05:23:23;30.85;;;13.45;;
84138;SDS011;74250;51.528;6.748;2023-11-18T05:25:49;33.63;;;14.07;;
84138;SDS011;74250;51.528;6.748;2023-11-18T05:28:15;26.88;;;14.32;;
84138;SDS011;74250;51.528;6.748;2023-11-18T05:30:41;31.05;;;13.75;;
84138;SDS011;74250;51.528;6.748;2023-11-18T05:33:09;30.20;;;13.35;;
84138;SDS011;74250;51.528;6.748;2023-11-18T05:35:35;31.77;;;14.43;;
84138;SDS011;74250;51.528;6.748;2023-11-18T05:38:01;31.23;;;14.85;;
84138;SDS011;74250;51.528;6.748;2023-11-18T05:40:28;33.83;;;15.55;;
84138;SDS011;74250;51.528;6.748;2023-11-18T05:42:54;36.45;;;14.82;;
84138;SDS011;74250;51.528;6.748;2023-11-18T05:45:20;34.33;;;14.52;;
84138;SDS011;74250;51.528;6.748;2023-11-18T05:47:57;32.92;;;15.35;;
84138;SDS011;74250;51.528;6.748;2023-11-18T05:50:23;29.90;;;14.02;;
84138;SDS011;74250;51.528;6.748;2023-11-18T05:52:52;32.22;;;14.82;;
84138;SDS011;74250;51.528;6.748;2023-11-18T05:55:20;33.63;;;15.60;;
84138;SDS011;74250;51.528;6.748;2023-11-18T05:57:45;33.67;;;13.10;;
84138;SDS011;74250;51.528;6.748;2023-11-18T06:00:14;30.23;;;14.43;;
84138;SDS011;74250;51.528;6.748;2023-11-18T06:02:42;33.00;;;14.82;;
84138;SDS011;74250;51.528;6.748;2023-11-18T06:05:08;32.30;;;14.57;;
84138;SDS011;74250;51.528;6.748;2023-11-18T06:10:00;34.72;;;15.05;;
84138;SDS011;74250;51.528;6.748;2023-11-18T06:12:26;31.98;;;13.85;;
84138;SDS011;74250;51.528;6.748;2023-11-18T06:14:54;25.75;;;11.70;;
84138;SDS011;74250;51.528;6.748;2023-11-18T06:17:20;26.40;;;12.35;;
84138;SDS011;74250;51.528;6.748;2023-11-18T06:19:45;29.42;;;12.98;;
84138;SDS011;74250;51.528;6.748;2023-11-18T06:22:13;27.75;;;13.18;;
84138;SDS011;74250;51.528;6.748;2023-11-18T06:24:38;30.23;;;14.73;;
84138;SDS011;74250;51.528;6.748;2023-11-18T06:27:04;30.55;;;13.50;;
84138;SDS011;74250;51.528;6.748;2023-11-18T06:29:30;31.88;;;13.32;;
84138;SDS011;74250;51.528;6.748;2023-11-18T06:31:58;30.25;;;13.85;;
84138;SDS011;74250;51.528;6.748;2023-11-18T06:34:26;24.98;;;12.63;;
84138;SDS011;74250;51.528;6.748;2023-11-18T06:36:52;32.70;;;12.82;;
84138;SDS011;74250;51.528;6.748;2023-11-18T06:39:18;29.80;;;13.38;;
84138;SDS011;74250;51.528;6.748;2023-11-18T06:41:44;27.08;;;12.90;;
84138;SDS011;74250;51.528;6.748;2023-11-18T06:44:15;26.60;;;13.43;;
84138;SDS011;74250;51.528;6.748;2023-11-18T06:46:43;27.88;;;13.43;;
84138;SDS011;74250;51.528;6.748;2023-11-18T06:49:09;29.30;;;14.07;;
84138;SDS011;74250;51.528;6.748;2023-11-18T06:51:40;24.20;;;11.85;;
84138;SDS011;74250;51.528;6.748;2023-11-18T06:54:06;26.35;;;11.60;;
84138;SDS011;74250;51.528;6.748;2023-11-18T06:56:34;28.05;;;13.23;;
84138;SDS011;74250;51.528;6.748;2023-11-18T06:59:01;23.55;;;12.07;;
84138;SDS011;74250;51.528;6.748;2023-11-18T07:01:27;26.42;;;12.65;;
84138;SDS011;74250;51.528;6.748;2023-11-18T07:03:55;24.73;;;13.32;;
84138;SDS011;74250;51.528;6.748;2023-11-18T07:06:21;28.48;;;12.55;;
84138;SDS011;74250;51.528;6.748;2023-11-18T07:08:50;29.73;;;14.95;;
84138;SDS011;74250;51.528;6.748;2023-11-18T07:11:16;25.15;;;12.52;;
84138;SDS011;74250;51.528;6.748;2023-11-18T07:16:18;30.60;;;13.97;;
84138;SDS011;74250;51.528;6.748;2023-11-18T07:18:43;29.63;;;13.15;;
84138;SDS011;74250;51.528;6.748;2023-11-18T07:21:09;25.15;;;13.18;;
84138;SDS011;74250;51.528;6.748;2023-11-18T07:23:34;28.77;;;13.65;;
84138;SDS011;74250;51.528;6.748;2023-11-18T07:26:02;27.63;;;14.23;;
84138;SDS011;74250;51.528;6.748;2023-11-18T07:30:54;26.83;;;12.63;;
84138;SDS011;74250;51.528;6.748;2023-11-18T07:33:20;25.48;;;13.07;;
84138;SDS011;74250;51.528;6.748;2023-11-18T07:35:46;27.23;;;13.43;;
84138;SDS011;74250;51.528;6.748;2023-11-18T07:38:13;23.88;;;11.85;;
84138;SDS011;74250;51.528;6.748;2023-11-18T07:40:38;29.85;;;13.30;;
84138;SDS011;74250;51.528;6.748;2023-11-18T07:43:10;25.58;;;12.93;;
84138;SDS011;74250;51.528;6.748;2023-11-18T07:45:36;25.15;;;12.45;;
84138;SDS011;74250;51.528;6.748;2023-11-18T07:48:05;28.33;;;14.77;;
84138;SDS011;74250;51.528;6.748;2023-11-18T07:50:34;25.17;;;12.13;;
84138;SDS011;74250;51.528;6.748;2023-11-18T07:53:15;24.55;;;13.40;;
84138;SDS011;74250;51.528;6.748;2023-11-18T07:55:41;24.35;;;11.80;;
84138;SDS011;74250;51.528;6.748;2023-11-18T07:58:07;22.10;;;10.32;;
84138;SDS011;74250;51.528;6.748;2023-11-18T08:00:36;24.20;;;11.65;;
84138;SDS011;74250;51.528;6.748;2023-11-18T08:03:09;28.30;;;12.20;;
84138;SDS011;74250;51.528;6.748;2023-11-18T08:05:37;26.05;;;11.65;;
84138;SDS011;74250;51.528;6.748;2023-11-18T08:08:04;21.63;;;11.95;;
84138;SDS011;74250;51.528;6.748;2023-11-18T08:10:33;20.83;;;10.50;;
84138;SDS011;74250;51.528;6.748;2023-11-18T08:13:02;23.60;;;12.05;;
84138;SDS011;74250;51.528;6.748;2023-11-18T08:15:29;23.05;;;12.05;;
84138;SDS011;74250;51.528;6.748;2023-11-18T08:17:56;25.40;;;11.50;;
84138;SDS011;74250;51.528;6.748;2023-11-18T08:20:21;24.73;;;11.98;;
84138;SDS011;74250;51.528;6.748;2023-11-18T08:22:50;23.60;;;12.55;;
84138;SDS011;74250;51.528;6.748;2023-11-18T08:25:15;19.75;;;10.35;;
84138;SDS011;74250;51.528;6.748;2023-11-18T08:27:42;22.25;;;10.65;;
84138;SDS011;74250;51.528;6.748;2023-11-18T08:30:11;22.30;;;10.45;;
84138;SDS011;74250;51.528;6.748;2023-11-18T08:32:38;23.52;;;11.32;;
84138;SDS011;74250;51.528;6.748;2023-11-18T08:35:06;24.42;;;11.43;;
84138;SDS011;74250;51.528;6.748;2023-11-18T08:37:37;22.95;;;11.63;;
84138;SDS011;74250;51.528;6.748;2023-11-18T08:40:03;21.30;;;11.73;;
84138;SDS011;74250;51.528;6.748;2023-11-18T08:42:31;21.45;;;10.60;;
84138;SDS011;74250;51.528;6.748;2023-11-18T08:45:00;21.98;;;10.57;;
84138;SDS011;74250;51.528;6.748;2023-11-18T08:47:26;21.15;;;10.43;;
84138;SDS011;74250;51.528;6.748;2023-11-18T08:49:52;21.80;;;10.88;;
84138;SDS011;74250;51.528;6.748;2023-11-18T08:52:17;18.85;;;9.95;;
84138;SDS011;74250;51.528;6.748;2023-11-18T08:54:43;19.75;;;10.48;;
84138;SDS011;74250;51.528;6.748;2023-11-18T09:00:13;20.00;;;9.32;;
84138;SDS011;74250;51.528;6.748;2023-11-18T09:02:59;22.33;;;10.52;;
84138;SDS011;74250;51.528;6.748;2023-11-18T09:05:26;20.08;;;9.85;;
84138;SDS011;74250;51.528;6.748;2023-11-18T09:07:56;17.60;;;8.80;;
84138;SDS011;74250;51.528;6.748;2023-11-18T09:10:27;20.90;;;10.25;;
84138;SDS011;74250;51.528;6.748;2023-11-18T09:12:55;20.70;;;11.18;;
84138;SDS011;74250;51.528;6.748;2023-11-18T09:15:20;18.27;;;9.88;;
84138;SDS011;74250;51.528;6.748;2023-11-18T09:17:49;16.73;;;8.35;;
84138;SDS011;74250;51.528;6.748;2023-11-18T09:20:15;15.98;;;8.90;;
84138;SDS011;74250;51.528;6.748;2023-11-18T09:22:45;17.00;;;8.88;;
84138;SDS011;74250;51.528;6.748;2023-11-18T09:25:11;18.80;;;9.43;;
84138;SDS011;74250;51.528;6.748;2023-11-18T09:27:36;19.20;;;10.23;;
84138;SDS011;74250;51.528;6.748;2023-11-18T09:30:03;15.32;;;8.73;;
84138;SDS011;74250;51.528;6.748;2023-11-18T09:32:38;17.45;;;9.73;;
84138;SDS011;74250;51.528;6.748;2023-11-18T09:35:07;17.40;;;9.30;;
84138;SDS011;74250;51.528;6.748;2023-11-18T09:37:34;16.13;;;8.50;;
84138;SDS011;74250;51.528;6.748;2023-11-18T09:40:00;18.35;;;8.68;;
84138;SDS011;74250;51.528;6.748;2023-11-18T09:42:36;17.30;;;9.38;;
84138;SDS011;74250;51.528;6.748;2023-11-18T09:45:04;18.65;;;8.82;;
84138;SDS011;74250;51.528;6.748;2023-11-18T09:47:37;15.93;;;8.63;;
84138;SDS011;74250;51.528;6.748;2023-11-18T09:50:08;13.48;;;7.63;;
84138;SDS011;74250;51.528;6.748;2023-11-18T09:52:42;15.95;;;7.00;;
84138;SDS011;74250;51.528;6.748;2023-11-18T09:55:21;14.07;;;7.25;;
84138;SDS011;74250;51.528;6.748;2023-11-18T09:57:54;13.82;;;8.07;;
84138;SDS011;74250;51.528;6.748;2023-11-18T10:00:22;15.88;;;7.13;;
84138;SDS011;74250;51.528;6.748;2023-11-18T10:02:57;14.27;;;6.78;;
84138;SDS011;74250;51.528;6.748;2023-11-18T10:05:25;12.18;;;6.10;;
84138;SDS011;74250;51.528;6.748;2023-11-18T10:07:52;10.23;;;6.57;;
84138;SDS011;74250;51.528;6.748;2023-11-18T10:10:23;12.13;;;6.03;;
84138;SDS011;74250;51.528;6.748;2023-11-18T10:12:50;13.73;;;7.38;;
84138;SDS011;74250;51.528;6.748;2023-11-18T10:15:23;13.02;;;6.13;;
84138;SDS011;74250;51.528;6.748;2023-11-18T10:17:49;12.07;;;5.65;;
84138;SDS011;74250;51.528;6.748;2023-11-18T10:20:44;11.43;;;6.03;;
84138;SDS011;74250;51.528;6.748;2023-11-18T10:23:13;9.25;;;5.75;;
84138;SDS011;74250;51.528;6.748;2023-11-18T10:25:47;12.32;;;5.45;;
84138;SDS011;74250;51.528;6.748;2023-11-18T10:30:58;10.82;;;5.30;;
84138;SDS011;74250;51.528;6.748;2023-11-18T10:33:27;9.88;;;5.35;;
84138;SDS011;74250;51.528;6.748;2023-11-18T10:35:57;11.88;;;6.18;;
84138;SDS011;74250;51.528;6.748;2023-11-18T10:38:23;14.38;;;6.45;;
84138;SDS011;74250;51.528;6.748;2023-11-18T10:40:55;10.05;;;5.80;;
84138;SDS011;74250;51.528;6.748;2023-11-18T10:43:22;10.40;;;5.95;;
84138;SDS011;74250;51.528;6.748;2023-11-18T10:48:43;10.73;;;5.57;;
84138;SDS011;74250;51.528;6.748;2023-11-18T10:51:12;10.68;;;5.82;;
84138;SDS011;74250;51.528;6.748;2023-11-18T10:53:42;9.82;;;4.97;;
84138;SDS011;74250;51.528;6.748;2023-11-18T10:56:19;12.73;;;5.82;;
84138;SDS011;74250;51.528;6.748;2023-11-18T10:58:49;10.35;;;5.80;;
84138;SDS011;74250;51.528;6.748;2023-11-18T11:01:16;9.70;;;5.25;;
84138;SDS011;74250;51.528;6.748;2023-11-18T11:03:53;10.23;;;5.82;;
84138;SDS011;74250;51.528;6.748;2023-11-18T11:06:24;11.55;;;5.00;;
84138;SDS011;74250;51.528;6.748;2023-11-18T11:09:05;13.77;;;7.05;;
84138;SDS011;74250;51.528;6.748;2023-11-18T11:12:07;9.00;;;4.30;;
84138;SDS011;74250;51.528;6.748;2023-11-18T11:14:35;9.23;;;4.43;;
84138;SDS011;74250;51.528;6.748;2023-11-18T11:17:06;11.98;;;4.93;;
84138;SDS011;74250;51.528;6.748;2023-11-18T11:22:42;10.00;;;5.55;;
84138;SDS011;74250;51.528;6.748;2023-11-18T11:25:35;11.30;;;4.95;;
84138;SDS011;74250;51.528;6.748;2023-11-18T11:30:49;9.57;;;5.30;;
84138;SDS011;74250;51.528;6.748;2023-11-18T11:36:17;10.88;;;4.55;;
84138;SDS011;74250;51.528;6.748;2023-11-18T11:38:48;9.00;;;4.38;;
84138;SDS011;74250;51.528;6.748;2023-11-18T11:41:17;9.32;;;5.07;;
84138;SDS011;74250;51.528;6.748;2023-11-18T11:43:52;14.27;;;4.65;;
84138;SDS011;74250;51.528;6.748;2023-11-18T11:46:25;11.45;;;5.45;;
84138;SDS011;74250;51.528;6.748;2023-11-18T11:48:58;8.25;;;4.85;;
84138;SDS011;74250;51.528;6.748;2023-11-18T11:51:30;11.88;;;4.93;;
84138;SDS011;74250;51.528;6.748;2023-11-18T11:54:04;7.97;;;4.32;;
84138;SDS011;74250;51.528;6.748;2023-11-18T11:56:43;13.40;;;6.15;;
84138;SDS011;74250;51.528;6.748;2023-11-18T11:59:12;10.02;;;4.72;;
84138;SDS011;74250;51.528;6.748;2023-11-18T12:01:40;9.70;;;5.32;;
84138;SDS011;74250;51.528;6.748;2023-11-18T12:04:10;9.40;;;5.63;;
84138;SDS011;74250;51.528;6.748;2023-11-18T12:06:45;9.13;;;5.07;;
84138;SDS011;74250;51.528;6.748;2023-11-18T12:09:13;8.77;;;5.28;;
84138;SDS011;74250;51.528;6.748;2023-11-18T12:11:44;11.23;;;5.18;;
84138;SDS011;74250;51.528;6.748;2023-11-18T12:14:16;8.02;;;4.45;;
84138;SDS011;74250;51.528;6.748;2023-11-18T12:17:04;10.35;;;5.18;;
84138;SDS011;74250;51.528;6.748;2023-11-18T12:19:35;10.52;;;5.57;;
84138;SDS011;74250;51.528;6.748;2023-11-18T12:22:10;12.23;;;6.25;;
84138;SDS011;74250;51.528;6.748;2023-11-18T12:27:09;9.55;;;5.10;;
84138;SDS011;74250;51.528;6.748;2023-11-18T12:29:41;14.50;;;5.75;;
84138;SDS011;74250;51.528;6.748;2023-11-18T12:32:10;13.20;;;5.50;;
84138;SDS011;74250;51.528;6.748;2023-11-18T12:34:53;13.40;;;7.72;;
84138;SDS011;74250;51.528;6.748;2023-11-18T12:40:28;14.65;;;6.80;;
84138;SDS011;74250;51.528;6.748;2023-11-18T12:43:11;10.18;;;5.78;;
84138;SDS011;74250;51.528;6.748;2023-11-18T12:45:43;13.85;;;6.57;;
84138;SDS011;74250;51.528;6.748;2023-11-18T12:48:18;11.40;;;5.50;;
84138;SDS011;74250;51.528;6.748;2023-11-18T12:50:51;12.25;;;5.07;;
84138;SDS011;74250;51.528;6.748;2023-11-18T12:53:18;11.40;;;6.30;;
84138;SDS011;74250;51.528;6.748;2023-11-18T12:55:43;10.85;;;6.00;;
84138;SDS011;74250;51.528;6.748;2023-11-18T12:58:09;12.10;;;6.25;;
84138;SDS011;74250;51.528;6.748;2023-11-18T13:00:36;10.80;;;6.03;;
84138;SDS011;74250;51.528;6.748;2023-11-18T13:03:04;10.35;;;5.32;;
84138;SDS011;74250;51.528;6.748;2023-11-18T13:05:29;8.48;;;4.43;;
84138;SDS011;74250;51.528;6.748;2023-11-18T13:07:56;8.38;;;4.57;;
84138;SDS011;74250;51.528;6.748;2023-11-18T13:10:26;11.35;;;4.57;;
84138;SDS011;74250;51.528;6.748;2023-11-18T13:12:52;8.18;;;4.13;;
84138;SDS011;74250;51.528;6.748;2023-11-18T13:15:18;9.13;;;6.15;;
84138;SDS011;74250;51.528;6.748;2023-11-18T13:17:57;16.35;;;10.63;;
84138;SDS011;74250;51.528;6.748;2023-11-18T13:20:26;9.45;;;5.20;;
84138;SDS011;74250;51.528;6.748;2023-11-18T13:22:52;8.27;;;4.25;;
84138;SDS011;74250;51.528;6.748;2023-11-18T13:25:20;8.02;;;4.25;;
84138;SDS011;74250;51.528;6.748;2023-11-18T13:27:47;7.43;;;4.25;;
84138;SDS011;74250;51.528;6.748;2023-11-18T13:30:12;8.18;;;3.67;;
84138;SDS011;74250;51.528;6.748;2023-11-18T13:32:42;8.48;;;4.47;;
84138;SDS011;74250;51.528;6.748;2023-11-18T13:35:08;9.30;;;4.18;;
84138;SDS011;74250;51.528;6.748;2023-11-18T13:37:33;10.18;;;4.15;;
84138;SDS011;74250;51.528;6.748;2023-11-18T13:39:59;10.68;;;3.88;;
84138;SDS011;74250;51.528;6.748;2023-11-18T13:42:25;8.32;;;3.72;;
84138;SDS011;74250;51.528;6.748;2023-11-18T13:44:53;7.65;;;4.60;;
84138;SDS011;74250;51.528;6.748;2023-11-18T13:47:19;6.05;;;3.25;;
84138;SDS011;74250;51.528;6.748;2023-11-18T13:49:45;6.97;;;3.45;;
84138;SDS011;74250;51.528;6.748;2023-11-18T13:52:12;7.28;;;3.20;;
84138;SDS011;74250;51.528;6.748;2023-11-18T13:54:40;7.03;;;3.58;;
84138;SDS011;74250;51.528;6.748;2023-11-18T13:57:10;7.10;;;3.10;;
84138;SDS011;74250;51.528;6.748;2023-11-18T13:59:37;6.80;;;2.95;;
84138;SDS011;74250;51.528;6.748;2023-11-18T14:02:09;7.45;;;3.47;;
84138;SDS011;74250;51.528;6.748;2023-11-18T14:04:34;5.38;;;2.50;;
84138;SDS011;74250;51.528;6.748;2023-11-18T14:07:00;7.32;;;3.20;;
84138;SDS011;74250;51.528;6.748;2023-11-18T14:09:33;6.30;;;3.08;;
84138;SDS011;74250;51.528;6.748;2023-11-18T14:12:05;6.22;;;2.72;;
84138;SDS011;74250;51.528;6.748;2023-11-18T14:14:31;5.63;;;2.05;;
84138;SDS011;74250;51.528;6.748;2023-11-18T14:16:57;5.00;;;1.85;;
84138;SDS011;74250;51.528;6.748;2023-11-18T14:19:27;4.22;;;1.80;;
84138;SDS011;74250;51.528;6.748;2023-11-18T14:21:53;6.80;;;2.13;;
84138;SDS011;74250;51.528;6.748;2023-11-18T14:24:18;3.28;;;1.15;;
84138;SDS011;74250;51.528;6.748;2023-11-18T14:26:48;5.53;;;1.95;;
84138;SDS011;74250;51.528;6.748;2023-11-18T14:29:13;4.55;;;1.77;;
84138;SDS011;74250;51.528;6.748;2023-11-18T14:31:38;2.92;;;1.08;;
84138;SDS011;74250;51.528;6.748;2023-11-18T14:34:04;3.80;;;1.55;;
84138;SDS011;74250;51.528;6.748;2023-11-18T14:36:30;5.68;;;2.22;;
84138;SDS011;74250;51.528;6.748;2023-11-18T14:38:55;3.00;;;1.70;;
84138;SDS011;74250;51.528;6.748;2023-11-18T14:41:21;5.82;;;1.73;;
84138;SDS011;74250;51.528;6.748;2023-11-18T14:43:51;8.27;;;2.00;;
84138;SDS011;74250;51.528;6.748;2023-11-18T14:46:17;6.25;;;1.95;;
84138;SDS011;74250;51.528;6.748;2023-11-18T14:48:43;4.70;;;1.75;;
84138;SDS011;74250;51.528;6.748;2023-11-18T14:51:09;3.28;;;1.58;;
84138;SDS011;74250;51.528;6.748;2023-11-18T14:53:34;5.95;;;1.50;;
84138;SDS011;74250;51.528;6.748;2023-11-18T14:56:00;5.03;;;1.73;;
84138;SDS011;74250;51.528;6.748;2023-11-18T14:58:25;7.63;;;1.48;;
84138;SDS011;74250;51.528;6.748;2023-11-18T15:00:51;4.72;;;2.22;;
84138;SDS011;74250;51.528;6.748;2023-11-18T15:03:16;4.88;;;1.55;;
84138;SDS011;74250;51.528;6.748;2023-11-18T15:05:42;4.18;;;2.45;;
84138;SDS011;74250;51.528;6.748;2023-11-18T15:08:10;5.22;;;1.83;;
84138;SDS011;74250;51.528;6.748;2023-11-18T15:10:39;3.80;;;1.88;;